• Join FlightAware (Why Join?)
  • Login
  • US Flag 
11:33AM EDT


 

Airport Tracker/Info


-or-


 

Live Flight TrackerFlight Track Log ✈ SWA1969 ✈ 12-Apr-2013 ✈ KDAL - KOKC

Flight Track Log - Related Links

Times and Time Zones

All times are in EDT time to prevent confusion due to time zone crossing. See the SWA1969 flight status page for this flight to view local times or setup timezone preferences in your user account.

Time Position Orientation Groundspeed Altitude Reporting Facility
EDT Latitude Longitude Course Direction KTS MPH feet Rate Location/Type
07:30AM 32.8333 -96.8333 140° Southeast 153 176 1,600  Level Dallas / Fort Worth TRACON
07:30AM 32.8000 -96.8000 140° Southeast 206 237 3,300 2,220 Climbing Dallas / Fort Worth TRACON
07:31AM 32.7500 -96.7500 140° Southeast 237 273 5,900 1,560 Climbing Dallas / Fort Worth TRACON
07:32AM 32.7167 -96.6833 121° Southeast 235 270 6,400 1,920 Climbing Dallas / Fort Worth TRACON
07:34AM 32.8292 -96.6989 353° North 269 310 11,000 3,000 Climbing Fort Worth Center
07:35AM 32.9006 -96.7428 333° Northwest 300 345 14,500 3,600 Climbing Fort Worth Center
07:36AM 32.9906 -96.8067 329° Northwest 331 381 18,200 3,300 Climbing Fort Worth Center
07:37AM 33.0700 -96.8581 332° Northwest 351 404 21,200 3,000 Climbing Fort Worth Center
07:38AM 33.1706 -96.9194 333° Northwest 361 415 24,300 3,060 Climbing Fort Worth Center
07:39AM 33.2606 -96.9836 329° Northwest 372 428 27,400 2,340 Climbing Fort Worth Center
07:40AM 33.3672 -97.0181 345° North 379 436 29,000 780 Climbing Fort Worth Center
07:41AM 33.4800 -97.0375 352° North 398 458 29,000  Level Fort Worth Center
07:42AM 33.5886 -97.0544 353° North 398 458 29,000  Level Fort Worth Center
07:43AM 33.6969 -97.0739 352° North 398 458 29,000  Level Fort Worth Center
07:44AM 33.8078 -97.0911 353° North 392 451 29,000 -480 Level Fort Worth Center
07:45AM 33.9142 -97.1106 351° North 392 451 28,100 -1,440 Descending Fort Worth Center
07:46AM 34.0081 -97.1278 351° North 392 451 26,200 -2,100 Descending Fort Worth Center
07:47AM 34.1167 -97.1500 350° North 382 440 24,000 -2,040 Descending Fort Worth Center
07:48AM 34.2169 -97.1675 352° North 362 417 22,200 -1,800 Descending Fort Worth Center
07:49AM 34.3108 -97.1847 351° North 351 404 20,400 -1,800 Descending Fort Worth Center
07:50AM 34.4069 -97.2019 352° North 351 404 18,600 -1,800 Descending Fort Worth Center
07:51AM 34.4967 -97.2169 352° North 351 404 16,900 -1,740 Descending Fort Worth Center
07:52AM 34.5842 -97.2319 352° North 335 386 15,200 -1,740 Descending Fort Worth Center
07:53AM 34.6511 -97.2419 353° North 305 351 13,900 -1,380 Descending Fort Worth Center
07:54AM 34.7261 -97.2719 342° North 279 321 12,800 -1,080 Descending Fort Worth Center
07:55AM 34.8056 -97.3200 334° Northwest 276 318 11,700 -1,380 Descending Fort Worth Center
07:56AM 34.8619 -97.3528 335° Northwest 267 307 10,100 -1,620 Descending Fort Worth Center
07:57AM 34.9369 -97.3908 337° Northwest 264 304 8,700 -1,440 Descending Fort Worth Center
07:58AM 34.9975 -97.4261 334° Northwest 250 288 7,300 -1,500 Descending Fort Worth Center
07:59AM 35.0600 -97.4617 335° Northwest 245 282 5,700 -1,440 Descending Fort Worth Center
08:00AM 35.1372 -97.5050 335° Northwest 254 292 4,200 -1,020 Descending Fort Worth Center
08:01AM 35.1914 -97.5381 333° Northwest 255 293 3,700 -600 Descending Fort Worth Center
08:02AM 35.2456 -97.5661 337° Northwest 249 287 3,000 -480 Descending Fort Worth Center
08:03AM 35.2933 -97.5942 334° Northwest 167 192 2,800 -480 Descending Fort Worth Center
08:04AM 35.3311 -97.5942 360° North 116 133 2,200 -660 Descending Fort Worth Center
08:05AM 35.3706 -97.5944 360° North 113 130 1,400 -480 Descending Fort Worth Center
08:06AM 35.4039 -97.5969 357° North 120 138 1,300 -120 Descending Fort Worth Center